createdAt,value
2023-04-11T00:00:16.325Z,10.44
2023-04-11T00:00:46.328Z,10.45
2023-04-11T00:01:16.333Z,10.46
2023-04-11T00:01:46.396Z,10.49
2023-04-11T00:02:16.532Z,10.5
2023-04-11T00:02:46.526Z,10.49
2023-04-11T00:03:16.547Z,10.5
2023-04-11T00:03:46.593Z,10.52
2023-04-11T00:04:16.378Z,10.53
2023-04-11T00:04:46.434Z,10.54
2023-04-11T00:05:16.350Z,10.55
2023-04-11T00:05:46.327Z,10.56
2023-04-11T00:06:16.330Z,10.6
2023-04-11T00:06:46.336Z,10.62
2023-04-11T00:07:16.337Z,10.65
2023-04-11T00:07:46.330Z,10.65
2023-04-11T00:08:16.328Z,10.64
2023-04-11T00:08:46.324Z,10.63
2023-04-11T00:09:16.327Z,10.62
2023-04-11T00:09:46.335Z,10.62
2023-04-11T00:10:16.328Z,10.61
2023-04-11T00:10:46.356Z,10.6
2023-04-11T00:11:16.328Z,10.58
2023-04-11T00:11:46.326Z,10.58
2023-04-11T00:12:16.345Z,10.59
2023-04-11T00:12:46.341Z,10.62
2023-04-11T00:13:16.329Z,10.65
2023-04-11T00:13:46.324Z,10.67
2023-04-11T00:14:16.326Z,10.68
2023-04-11T00:14:46.327Z,10.64
2023-04-11T00:15:16.328Z,10.63
2023-04-11T00:15:46.326Z,10.62
2023-04-11T00:16:16.355Z,10.61
2023-04-11T00:16:46.406Z,10.58
2023-04-11T00:17:16.331Z,10.54
2023-04-11T00:17:46.354Z,10.51
2023-04-11T00:18:16.328Z,10.48
2023-04-11T00:18:46.330Z,10.45
2023-04-11T00:19:16.324Z,10.41
2023-04-11T00:19:46.347Z,10.37
2023-04-11T00:20:16.331Z,10.3
2023-04-11T00:20:46.340Z,10.24
2023-04-11T00:21:16.372Z,10.17
2023-04-11T00:21:46.332Z,10.1
2023-04-11T00:22:16.336Z,10.02
2023-04-11T00:22:46.328Z,9.92
2023-04-11T00:23:16.343Z,9.83
2023-04-11T00:23:46.335Z,9.7
2023-04-11T00:24:16.372Z,9.56
2023-04-11T00:24:46.331Z,9.49
2023-04-11T00:25:16.334Z,9.41
2023-04-11T00:25:46.339Z,9.3
2023-04-11T00:26:16.334Z,9.16
2023-04-11T00:26:46.340Z,9.03
2023-04-11T00:27:16.330Z,8.96
2023-04-11T00:27:46.323Z,8.93
2023-04-11T00:28:16.325Z,8.92
2023-04-11T00:28:46.322Z,8.91
2023-04-11T00:29:16.328Z,8.91
2023-04-11T00:29:46.342Z,8.91
2023-04-11T00:30:16.321Z,8.89
2023-04-11T00:30:46.336Z,8.9
2023-04-11T00:31:16.399Z,8.89
2023-04-11T00:31:46.387Z,8.88
2023-04-11T00:32:16.332Z,8.88
2023-04-11T00:32:46.400Z,8.9
2023-04-11T00:33:16.326Z,8.93
2023-04-11T00:33:46.350Z,8.95
2023-04-11T00:34:16.333Z,8.96
2023-04-11T00:34:46.327Z,8.97
2023-04-11T00:35:16.337Z,8.98
2023-04-11T00:35:46.350Z,8.97
2023-04-11T00:36:16.417Z,8.98
2023-04-11T00:36:46.363Z,8.99
2023-04-11T00:37:16.330Z,8.99
2023-04-11T00:37:46.328Z,8.99
2023-04-11T00:38:16.328Z,8.99
2023-04-11T00:38:46.325Z,8.99
2023-04-11T00:39:16.335Z,8.99
2023-04-11T00:39:46.329Z,9.01
2023-04-11T00:40:16.335Z,8.99
2023-04-11T00:40:46.341Z,8.98
2023-04-11T00:41:16.332Z,8.97
2023-04-11T00:41:46.327Z,8.93
2023-04-11T00:42:16.340Z,8.88
2023-04-11T00:42:46.327Z,8.83
2023-04-11T00:43:16.336Z,8.76
2023-04-11T00:43:46.332Z,8.74
2023-04-11T00:44:16.339Z,8.73
2023-04-11T00:44:46.336Z,8.71
2023-04-11T00:45:16.339Z,8.68
2023-04-11T00:45:46.354Z,8.7
2023-04-11T00:46:16.391Z,8.71
2023-04-11T00:46:46.396Z,8.72
2023-04-11T00:47:16.334Z,8.71
2023-04-11T00:47:46.384Z,8.71
2023-04-11T00:48:16.346Z,8.72
2023-04-11T00:48:46.332Z,8.75
2023-04-11T00:49:16.333Z,8.78
2023-04-11T00:49:46.330Z,8.8
2023-04-11T00:50:16.341Z,8.83
2023-04-11T00:50:46.332Z,8.85
2023-04-11T00:51:16.340Z,8.87
2023-04-11T00:51:46.342Z,8.9
2023-04-11T00:52:16.342Z,8.9
2023-04-11T00:52:46.372Z,8.9
2023-04-11T00:53:16.349Z,8.92
2023-04-11T00:53:46.333Z,8.94
2023-04-11T00:54:16.334Z,8.94
2023-04-11T00:54:46.345Z,8.96
2023-04-11T00:55:16.361Z,8.98
2023-04-11T00:55:46.338Z,9
2023-04-11T00:56:16.337Z,8.99
2023-04-11T00:56:46.324Z,8.98
2023-04-11T00:57:16.336Z,8.98
2023-04-11T00:57:46.333Z,9.01
2023-04-11T00:58:16.334Z,9.05
2023-04-11T00:58:46.341Z,9.1
2023-04-11T00:59:16.325Z,9.11
2023-04-11T00:59:46.328Z,9.12
2023-04-11T01:00:16.352Z,9.13
2023-04-11T01:00:46.359Z,9.13
2023-04-11T01:01:16.351Z,9.12
2023-04-11T01:01:46.454Z,9.08
2023-04-11T01:02:16.398Z,9.09
2023-04-11T01:02:46.401Z,9.05
2023-04-11T01:03:16.472Z,9.01
2023-04-11T01:03:46.465Z,9
2023-04-11T01:04:16.388Z,8.97
2023-04-11T01:04:46.335Z,8.92
2023-04-11T01:05:16.376Z,8.9
2023-04-11T01:05:46.336Z,8.88
2023-04-11T01:06:16.347Z,8.85
2023-04-11T01:06:46.332Z,8.84
2023-04-11T01:07:16.355Z,8.84
2023-04-11T01:07:46.343Z,8.84
2023-04-11T01:08:16.343Z,8.79
2023-04-11T01:08:46.331Z,8.74
2023-04-11T01:09:16.340Z,8.71
2023-04-11T01:09:46.332Z,8.69
2023-04-11T01:10:16.342Z,8.7
2023-04-11T01:10:46.338Z,8.71
2023-04-11T01:11:16.372Z,8.71
2023-04-11T01:11:46.340Z,8.7
2023-04-11T01:12:16.348Z,8.7
2023-04-11T01:12:46.347Z,8.71
2023-04-11T01:13:16.347Z,8.7
2023-04-11T01:13:46.348Z,8.7
2023-04-11T01:14:16.345Z,8.71
2023-04-11T01:14:46.340Z,8.7
2023-04-11T01:15:16.342Z,8.68
2023-04-11T01:15:46.358Z,8.67
2023-04-11T01:16:16.348Z,8.65
2023-04-11T01:16:46.372Z,8.62
2023-04-11T01:17:16.345Z,8.57
2023-04-11T01:17:46.364Z,8.57
2023-04-11T01:18:16.347Z,8.55
2023-04-11T01:18:46.345Z,8.54
2023-04-11T01:19:16.348Z,8.47
2023-04-11T01:19:46.349Z,8.4
2023-04-11T01:20:16.356Z,8.4
2023-04-11T01:20:46.341Z,8.4
2023-04-11T01:21:16.357Z,8.42
2023-04-11T01:21:46.358Z,8.41
2023-04-11T01:22:16.352Z,8.41
2023-04-11T01:22:46.346Z,8.42
2023-04-11T01:23:16.353Z,8.44
2023-04-11T01:23:46.347Z,8.46
2023-04-11T01:24:16.345Z,8.49
2023-04-11T01:24:46.340Z,8.51
2023-04-11T01:25:16.361Z,8.53
2023-04-11T01:25:46.345Z,8.52
2023-04-11T01:26:16.370Z,8.52
2023-04-11T01:26:46.345Z,8.52
2023-04-11T01:27:16.353Z,8.53
2023-04-11T01:27:46.342Z,8.54
2023-04-11T01:28:16.364Z,8.5
2023-04-11T01:28:46.348Z,8.46
2023-04-11T01:29:16.355Z,8.44
2023-04-11T01:29:46.348Z,8.45
2023-04-11T01:30:16.355Z,8.45
2023-04-11T01:30:46.374Z,8.42
2023-04-11T01:31:16.480Z,8.38
2023-04-11T01:31:46.346Z,8.3
2023-04-11T01:32:16.350Z,8.24
2023-04-11T01:32:46.369Z,8.21
2023-04-11T01:33:16.360Z,8.18
2023-04-11T01:33:46.355Z,8.15
2023-04-11T01:34:16.355Z,8.14
2023-04-11T01:34:46.348Z,8.15
2023-04-11T01:35:16.359Z,8.17
2023-04-11T01:35:46.364Z,8.15
2023-04-11T01:36:16.359Z,8.12
2023-04-11T01:36:46.346Z,8.09
2023-04-11T01:37:16.354Z,8.07
2023-04-11T01:37:46.343Z,8.05
2023-04-11T01:38:16.356Z,8.05
2023-04-11T01:38:46.347Z,8.05
2023-04-11T01:39:16.349Z,8.04
2023-04-11T01:39:46.343Z,8.03
2023-04-11T01:40:16.348Z,8.05
2023-04-11T01:40:46.340Z,8.06
2023-04-11T01:41:16.347Z,8.08
2023-04-11T01:41:46.342Z,8.1
2023-04-11T01:42:16.348Z,8.11
2023-04-11T01:42:46.357Z,8.05
2023-04-11T01:43:16.369Z,8.01
2023-04-11T01:43:46.346Z,7.97
2023-04-11T01:44:16.356Z,7.95
2023-04-11T01:44:46.350Z,7.96
2023-04-11T01:45:16.358Z,7.99
2023-04-11T01:45:46.340Z,8.01
2023-04-11T01:46:16.349Z,8.04
2023-04-11T01:46:46.344Z,8.06
2023-04-11T01:47:16.345Z,8.06
2023-04-11T01:47:47.440Z,8.04
2023-04-11T01:48:16.423Z,8.03
2023-04-11T01:48:46.428Z,8.03
2023-04-11T01:49:16.421Z,8.02
2023-04-11T01:49:46.345Z,8.01
2023-04-11T01:50:16.351Z,8
2023-04-11T01:50:46.341Z,8
2023-04-11T01:51:16.347Z,8.01
2023-04-11T01:51:46.339Z,8.01
2023-04-11T01:52:16.344Z,8.01
2023-04-11T01:52:46.341Z,8.01
2023-04-11T01:53:16.341Z,8.01
2023-04-11T01:53:46.344Z,8.02
2023-04-11T01:54:16.350Z,8.03
2023-04-11T01:54:46.340Z,8.02
2023-04-11T01:55:16.349Z,8.04
2023-04-11T01:55:46.343Z,8.05
2023-04-11T01:56:16.366Z,8.06
2023-04-11T01:56:46.350Z,8.09
2023-04-11T01:57:16.345Z,8.12
2023-04-11T01:57:46.343Z,8.14
2023-04-11T01:58:16.346Z,8.15
2023-04-11T01:58:46.339Z,8.17
2023-04-11T01:59:16.380Z,8.18
2023-04-11T01:59:46.341Z,8.22
2023-04-11T02:00:16.354Z,8.26
2023-04-11T02:00:46.363Z,8.29
2023-04-11T02:01:16.401Z,8.34
2023-04-11T02:01:46.425Z,8.37
2023-04-11T02:02:16.540Z,8.4
2023-04-11T02:02:46.493Z,8.4
2023-04-11T02:03:16.488Z,8.39
2023-04-11T02:03:46.451Z,8.39
2023-04-11T02:04:16.513Z,8.37
2023-04-11T02:04:46.371Z,8.36
2023-04-11T02:05:16.349Z,8.36
2023-04-11T02:05:46.343Z,8.36
2023-04-11T02:06:16.348Z,8.38
2023-04-11T02:06:46.348Z,8.39
2023-04-11T02:07:16.351Z,8.4
2023-04-11T02:07:46.343Z,8.39
2023-04-11T02:08:16.349Z,8.38
2023-04-11T02:08:46.342Z,8.39
2023-04-11T02:09:16.351Z,8.41
2023-04-11T02:09:46.346Z,8.44
2023-04-11T02:10:16.348Z,8.46
2023-04-11T02:10:46.353Z,8.48
2023-04-11T02:11:16.367Z,8.52
2023-04-11T02:11:46.350Z,8.54
2023-04-11T02:12:16.362Z,8.55
2023-04-11T02:12:46.394Z,8.55
2023-04-11T02:13:16.350Z,8.5
2023-04-11T02:13:46.345Z,8.47
2023-04-11T02:14:16.349Z,8.44
2023-04-11T02:14:46.344Z,8.45
2023-04-11T02:15:16.349Z,8.47
2023-04-11T02:15:46.365Z,8.48
2023-04-11T02:16:16.418Z,8.49
2023-04-11T02:16:46.341Z,8.5
2023-04-11T02:17:16.354Z,8.49
2023-04-11T02:17:46.372Z,8.49
2023-04-11T02:18:16.353Z,8.5
2023-04-11T02:18:46.354Z,8.5
2023-04-11T02:19:16.349Z,8.48
2023-04-11T02:19:46.362Z,8.48
2023-04-11T02:20:16.362Z,8.48
2023-04-11T02:20:46.347Z,8.5
2023-04-11T02:21:16.354Z,8.52
2023-04-11T02:21:46.354Z,8.52
2023-04-11T02:22:16.356Z,8.54
2023-04-11T02:22:46.355Z,8.57
2023-04-11T02:23:16.348Z,8.6
2023-04-11T02:23:46.345Z,8.61
2023-04-11T02:24:16.388Z,8.62
2023-04-11T02:24:46.349Z,8.65
2023-04-11T02:25:16.356Z,8.66
2023-04-11T02:25:46.373Z,8.68
2023-04-11T02:26:16.370Z,8.71
2023-04-11T02:26:46.361Z,8.76
2023-04-11T02:27:16.356Z,8.82
2023-04-11T02:27:46.352Z,8.86
2023-04-11T02:28:16.351Z,8.92
2023-04-11T02:28:46.344Z,8.93
2023-04-11T02:29:16.356Z,8.94
2023-04-11T02:29:46.348Z,8.93
2023-04-11T02:30:16.348Z,8.95
2023-04-11T02:30:46.426Z,8.96
2023-04-11T02:31:16.427Z,8.96
2023-04-11T02:31:46.443Z,8.96
2023-04-11T02:32:16.529Z,8.97
2023-04-11T02:32:46.395Z,8.97
2023-04-11T02:33:16.360Z,8.97
2023-04-11T02:33:46.353Z,8.99
2023-04-11T02:34:16.360Z,8.99
2023-04-11T02:34:46.358Z,8.97
2023-04-11T02:35:16.361Z,8.99
2023-04-11T02:35:46.394Z,9
2023-04-11T02:36:16.377Z,8.98
2023-04-11T02:36:46.352Z,8.98
2023-04-11T02:37:16.354Z,8.97
2023-04-11T02:37:46.356Z,9.01
2023-04-11T02:38:16.351Z,9.05
2023-04-11T02:38:46.353Z,9.05
2023-04-11T02:39:16.360Z,9.04
2023-04-11T02:39:46.350Z,9.07
2023-04-11T02:40:16.354Z,9.11
2023-04-11T02:40:46.350Z,9.15
2023-04-11T02:41:16.371Z,9.18
2023-04-11T02:41:46.354Z,9.2
2023-04-11T02:42:16.355Z,9.22
2023-04-11T02:42:46.349Z,9.24
2023-04-11T02:43:16.394Z,9.23
2023-04-11T02:43:46.354Z,9.22
2023-04-11T02:44:16.365Z,9.22
2023-04-11T02:44:46.354Z,9.24
2023-04-11T02:45:16.361Z,9.23
2023-04-11T02:45:46.355Z,9.26
2023-04-11T02:46:16.390Z,9.32
2023-04-11T02:46:46.379Z,9.37
2023-04-11T02:47:16.404Z,9.36
2023-04-11T02:47:46.395Z,9.39
2023-04-11T02:48:16.361Z,9.43
2023-04-11T02:48:46.350Z,9.51
2023-04-11T02:49:16.368Z,9.58
2023-04-11T02:49:46.351Z,9.67
2023-04-11T02:50:16.357Z,9.75
2023-04-11T02:50:46.352Z,9.86
2023-04-11T02:51:16.358Z,9.96
2023-04-11T02:51:46.363Z,10.03
2023-04-11T02:52:16.370Z,10.09
2023-04-11T02:52:47.837Z,10.12
2023-04-11T02:53:16.367Z,10.12
2023-04-11T02:53:46.347Z,10.11
2023-04-11T02:54:16.354Z,10.14
2023-04-11T02:54:46.352Z,10.19
2023-04-11T02:55:16.376Z,10.24
2023-04-11T02:55:46.357Z,10.28
2023-04-11T02:56:16.349Z,10.33
2023-04-11T02:56:46.352Z,10.36
2023-04-11T02:57:16.348Z,10.41
2023-04-11T02:57:46.376Z,10.44
2023-04-11T02:58:16.354Z,10.44
2023-04-11T02:58:46.388Z,10.47
2023-04-11T02:59:16.372Z,10.47
2023-04-11T02:59:46.351Z,10.4
2023-04-11T03:00:16.359Z,10.37
2023-04-11T03:00:46.351Z,10.39
2023-04-11T03:01:16.388Z,10.41
2023-04-11T03:01:46.445Z,10.45
2023-04-11T03:02:16.480Z,10.48
2023-04-11T03:02:46.436Z,10.47
2023-04-11T03:03:16.493Z,10.48
2023-04-11T03:03:46.414Z,10.55
2023-04-11T03:04:16.393Z,10.63
2023-04-11T03:04:46.363Z,10.68
2023-04-11T03:05:16.361Z,10.72
2023-04-11T03:05:46.349Z,10.75
2023-04-11T03:06:16.366Z,10.81
2023-04-11T03:06:46.361Z,10.88
2023-04-11T03:07:16.369Z,10.95
2023-04-11T03:07:46.403Z,10.99
2023-04-11T03:08:16.356Z,11.04
2023-04-11T03:08:46.350Z,11.08
2023-04-11T03:09:16.362Z,11.1
2023-04-11T03:09:46.354Z,11.15
2023-04-11T03:10:16.361Z,11.18
2023-04-11T03:10:46.359Z,11.23
2023-04-11T03:11:16.358Z,11.27
2023-04-11T03:11:47.477Z,11.3
2023-04-11T03:12:16.371Z,11.34
2023-04-11T03:12:46.360Z,11.38
2023-04-11T03:13:16.359Z,11.44
2023-04-11T03:13:46.356Z,11.5
2023-04-11T03:14:16.363Z,11.55
2023-04-11T03:14:46.363Z,11.61
2023-04-11T03:15:16.369Z,11.6
2023-04-11T03:15:46.402Z,11.5
2023-04-11T03:16:16.365Z,11.4
2023-04-11T03:16:46.352Z,11.34
2023-04-11T03:17:16.361Z,11.32
2023-04-11T03:17:46.406Z,11.32
2023-04-11T03:18:16.362Z,11.3
2023-04-11T03:18:46.355Z,11.27
2023-04-11T03:19:16.382Z,11.23
2023-04-11T03:19:46.355Z,11.17
2023-04-11T03:20:16.362Z,11.16
2023-04-11T03:20:46.358Z,11.14
2023-04-11T03:21:16.379Z,11.13
2023-04-11T03:21:46.356Z,11.14
2023-04-11T03:22:16.363Z,11.16
2023-04-11T03:22:46.355Z,11.13
2023-04-11T03:23:16.370Z,11.13
2023-04-11T03:23:46.354Z,11.12
2023-04-11T03:24:16.372Z,11.11
2023-04-11T03:24:46.358Z,11.14
2023-04-11T03:25:16.367Z,11.2
2023-04-11T03:25:46.356Z,11.3
2023-04-11T03:26:16.360Z,11.42
2023-04-11T03:26:46.361Z,11.5
2023-04-11T03:27:16.361Z,11.55
2023-04-11T03:27:46.353Z,11.59
2023-04-11T03:28:16.363Z,11.61
2023-04-11T03:28:46.357Z,11.62
2023-04-11T03:29:16.376Z,11.62
2023-04-11T03:29:46.372Z,11.61
2023-04-11T03:30:16.393Z,11.62
2023-04-11T03:30:46.402Z,11.63
2023-04-11T03:31:16.413Z,11.68
2023-04-11T03:31:46.447Z,11.71
2023-04-11T03:32:16.372Z,11.76
2023-04-11T03:32:46.399Z,11.77
2023-04-11T03:33:16.370Z,11.8
2023-04-11T03:33:46.360Z,11.89
2023-04-11T03:34:16.369Z,11.96
2023-04-11T03:34:46.399Z,11.97
2023-04-11T03:35:16.368Z,12.02
2023-04-11T03:35:46.413Z,12.03
2023-04-11T03:36:16.409Z,12.06
2023-04-11T03:36:46.362Z,12.1
2023-04-11T03:37:16.369Z,12.14
2023-04-11T03:37:46.403Z,12.2
2023-04-11T03:38:16.365Z,12.24
2023-04-11T03:38:46.407Z,12.27
2023-04-11T03:39:16.394Z,12.33
2023-04-11T03:39:46.380Z,12.44
2023-04-11T03:40:16.368Z,12.55
2023-04-11T03:40:46.363Z,12.63
2023-04-11T03:41:16.367Z,12.71
2023-04-11T03:41:46.360Z,12.81
2023-04-11T03:42:16.374Z,12.9
2023-04-11T03:42:46.371Z,12.97
2023-04-11T03:43:16.367Z,13.05
2023-04-11T03:43:46.366Z,13.1
2023-04-11T03:44:16.409Z,13.18
2023-04-11T03:44:46.363Z,13.29
2023-04-11T03:45:16.410Z,13.4
2023-04-11T03:45:46.376Z,13.48
2023-04-11T03:46:16.417Z,13.55
2023-04-11T03:46:46.422Z,13.61
2023-04-11T03:47:16.371Z,13.58
2023-04-11T03:47:46.428Z,13.58
2023-04-11T03:48:18.125Z,13.55
2023-04-11T03:48:47.235Z,13.51
2023-04-11T03:49:16.398Z,13.41
2023-04-11T03:49:46.370Z,13.32
2023-04-11T03:50:16.376Z,13.26
2023-04-11T03:50:46.368Z,13.29
2023-04-11T03:51:16.390Z,13.34
2023-04-11T03:51:46.418Z,13.39
2023-04-11T03:52:16.368Z,13.5
2023-04-11T03:52:46.379Z,13.58
2023-04-11T03:53:16.372Z,13.64
2023-04-11T03:53:46.364Z,13.74
2023-04-11T03:54:16.372Z,13.82
2023-04-11T03:54:47.824Z,13.87
2023-04-11T03:55:16.369Z,13.9
2023-04-11T03:55:46.366Z,13.91
2023-04-11T03:56:16.373Z,13.89
2023-04-11T03:56:46.362Z,13.89
2023-04-11T03:57:16.378Z,13.89
2023-04-11T03:57:46.370Z,13.82
2023-04-11T03:58:16.404Z,13.79
2023-04-11T03:58:46.365Z,13.79
2023-04-11T03:59:16.372Z,13.78
2023-04-11T03:59:46.369Z,13.77
2023-04-11T04:00:16.381Z,13.77
2023-04-11T04:00:46.384Z,13.81
2023-04-11T04:01:16.374Z,13.89
2023-04-11T04:01:46.421Z,13.97
2023-04-11T04:02:16.426Z,14.13
2023-04-11T04:02:46.497Z,14.19
2023-04-11T04:03:16.738Z,14.19
2023-04-11T04:03:46.531Z,14.09
2023-04-11T04:04:16.503Z,14.02
2023-04-11T04:04:46.563Z,14.05
2023-04-11T04:05:16.374Z,14.08
2023-04-11T04:05:46.363Z,14.15
2023-04-11T04:06:16.379Z,14.13
2023-04-11T04:06:46.369Z,14.14
2023-04-11T04:07:16.367Z,14.14
2023-04-11T04:07:46.365Z,14.05
2023-04-11T04:08:16.372Z,14.12
2023-04-11T04:08:46.366Z,14.23
2023-04-11T04:09:16.395Z,14.25
2023-04-11T04:09:46.363Z,14.28
2023-04-11T04:10:16.368Z,14.3
2023-04-11T04:10:46.376Z,14.34
2023-04-11T04:11:16.372Z,14.47
2023-04-11T04:11:46.366Z,14.64
2023-04-11T04:12:16.381Z,14.65
2023-04-11T04:12:46.395Z,14.6
2023-04-11T04:13:16.370Z,14.49
2023-04-11T04:13:46.367Z,14.5
2023-04-11T04:14:16.371Z,14.48
2023-04-11T04:14:46.367Z,14.54
2023-04-11T04:15:16.373Z,14.54
2023-04-11T04:15:46.372Z,14.66
2023-04-11T04:16:16.415Z,14.89
2023-04-11T04:16:46.397Z,15.36
2023-04-11T04:17:16.391Z,16.14
2023-04-11T04:17:46.425Z,17.16
2023-04-11T04:18:16.391Z,18.14
2023-04-11T04:18:46.365Z,18.97
2023-04-11T04:19:16.373Z,19.46
2023-04-11T04:19:46.371Z,19.93
2023-04-11T04:20:16.383Z,20.5
2023-04-11T04:20:46.366Z,20.91
2023-04-11T04:21:16.368Z,21.34
2023-04-11T04:21:46.372Z,22.07
2023-04-11T04:22:16.373Z,22.85
2023-04-11T04:22:46.370Z,23.36
2023-04-11T04:23:16.371Z,23.86
2023-04-11T04:23:46.373Z,24.02
2023-04-11T04:24:16.376Z,24.58
2023-04-11T04:24:46.370Z,25.06
2023-04-11T04:25:16.370Z,25.57
2023-04-11T04:25:46.367Z,25.5
2023-04-11T04:26:16.369Z,25.84
2023-04-11T04:26:46.370Z,26.08
2023-04-11T04:27:16.372Z,26.19
2023-04-11T04:27:46.368Z,25.93
2023-04-11T04:28:16.370Z,25.27
2023-04-11T04:28:46.367Z,24.51
2023-04-11T04:29:16.374Z,23.95
2023-04-11T04:29:46.499Z,23.19
2023-04-11T04:30:16.382Z,22.32
2023-04-11T04:30:46.372Z,21.46
2023-04-11T04:31:16.391Z,20.48
2023-04-11T04:31:46.413Z,19.6
2023-04-11T04:32:16.377Z,18.86
2023-04-11T04:32:46.406Z,18.29
2023-04-11T04:33:16.387Z,17.77
2023-04-11T04:33:46.367Z,17.31
2023-04-11T04:34:16.374Z,16.79
2023-04-11T04:34:46.384Z,16.35
2023-04-11T04:35:16.412Z,16.07
2023-04-11T04:35:46.401Z,15.83
2023-04-11T04:36:16.375Z,15.65
2023-04-11T04:36:46.397Z,15.6
2023-04-11T04:37:16.385Z,15.72
2023-04-11T04:37:46.378Z,16.09
2023-04-11T04:38:16.374Z,16.9
2023-04-11T04:38:46.373Z,17.98
2023-04-11T04:39:16.374Z,19.17
2023-04-11T04:39:46.374Z,20.39
2023-04-11T04:40:16.384Z,21.55
2023-04-11T04:40:47.498Z,22.78
2023-04-11T04:41:16.383Z,23.39
2023-04-11T04:41:46.373Z,23.67
2023-04-11T04:42:16.381Z,24.05
2023-04-11T04:42:46.372Z,24.52
2023-04-11T04:43:16.381Z,25.01
2023-04-11T04:43:46.377Z,25.25
2023-04-11T04:44:16.381Z,25.73
2023-04-11T04:44:46.378Z,26.56
2023-04-11T04:45:16.394Z,27.49
2023-04-11T04:45:46.417Z,28.2
2023-04-11T04:46:16.462Z,28.67
2023-04-11T04:46:46.378Z,28.9
2023-04-11T04:47:16.386Z,28.94
2023-04-11T04:47:46.417Z,29.09
2023-04-11T04:48:16.386Z,29.35
2023-04-11T04:48:46.380Z,29.75
2023-04-11T04:49:16.381Z,29.85
2023-04-11T04:49:46.375Z,29.61
2023-04-11T04:50:16.381Z,29.66
2023-04-11T04:50:46.377Z,29.49
2023-04-11T04:51:16.381Z,29.62
2023-04-11T04:51:46.378Z,30.03
2023-04-11T04:52:16.384Z,30.14
2023-04-11T04:52:46.384Z,30.43
2023-04-11T04:53:16.379Z,30.3
2023-04-11T04:53:46.408Z,30.12
2023-04-11T04:54:16.378Z,30.4
2023-04-11T04:54:46.376Z,30.75
2023-04-11T04:55:16.383Z,31.23
2023-04-11T04:55:46.388Z,31.89
2023-04-11T04:56:16.396Z,32.26
2023-04-11T04:56:46.377Z,32.48
2023-04-11T04:57:16.389Z,32.31
2023-04-11T04:57:46.379Z,32.62
2023-04-11T04:58:16.379Z,32.72
2023-04-11T04:58:46.377Z,32.9
2023-04-11T04:59:16.425Z,32.79
2023-04-11T04:59:46.383Z,32.61
2023-04-11T05:00:16.388Z,32.11
2023-04-11T05:00:46.409Z,31.97
2023-04-11T05:01:16.410Z,31.83
2023-04-11T05:01:46.551Z,31.14
2023-04-11T05:02:16.540Z,30.58
2023-04-11T05:02:46.528Z,30.1
2023-04-11T05:03:16.663Z,29.82
2023-04-11T05:03:46.526Z,29.79
2023-04-11T05:04:16.489Z,29.66
2023-04-11T05:04:46.379Z,29.06
2023-04-11T05:05:16.383Z,28.77
2023-04-11T05:05:46.380Z,29.13
2023-04-11T05:06:17.423Z,29.53
2023-04-11T05:06:46.378Z,29.86
2023-04-11T05:07:16.388Z,30.16
2023-04-11T05:07:46.386Z,30.34
2023-04-11T05:08:16.383Z,30.66
2023-04-11T05:08:46.380Z,30.72
2023-04-11T05:09:16.389Z,30.62
2023-04-11T05:09:46.388Z,30.27
2023-04-11T05:10:16.383Z,30.14
2023-04-11T05:10:46.394Z,29.61
2023-04-11T05:11:16.387Z,29.16
2023-04-11T05:11:46.379Z,29.36
2023-04-11T05:12:16.389Z,29.79
2023-04-11T05:12:46.388Z,29.87
2023-04-11T05:13:16.393Z,29.59
2023-04-11T05:13:46.382Z,29.24
2023-04-11T05:14:16.389Z,28.92
2023-04-11T05:14:46.382Z,28.56
2023-04-11T05:15:16.400Z,28.45
2023-04-11T05:15:46.383Z,28.97
2023-04-11T05:16:16.466Z,29.55
2023-04-11T05:16:46.431Z,29.62
2023-04-11T05:17:16.389Z,29.54
2023-04-11T05:17:46.425Z,29.22
2023-04-11T05:18:16.411Z,28.63
2023-04-11T05:18:46.388Z,28.64
2023-04-11T05:19:16.391Z,29.14
2023-04-11T05:19:46.392Z,29.92
2023-04-11T05:20:16.390Z,30.31
2023-04-11T05:20:46.394Z,30.43
2023-04-11T05:21:16.389Z,30.53
2023-04-11T05:21:46.430Z,30.81
2023-04-11T05:22:16.392Z,31.61
2023-04-11T05:22:46.395Z,32.08
2023-04-11T05:23:16.391Z,32.29
2023-04-11T05:23:46.396Z,32.4
2023-04-11T05:24:16.396Z,32.33
2023-04-11T05:24:46.396Z,32
2023-04-11T05:25:16.399Z,31.59
2023-04-11T05:25:46.396Z,31.55
2023-04-11T05:26:16.407Z,31.8
2023-04-11T05:26:46.393Z,31.8
2023-04-11T05:27:16.393Z,31.64
2023-04-11T05:27:46.392Z,31.48
2023-04-11T05:28:16.396Z,31.36
2023-04-11T05:28:46.392Z,31.34
2023-04-11T05:29:16.422Z,31.26
2023-04-11T05:29:46.387Z,30.84
2023-04-11T05:30:16.414Z,30.6
2023-04-11T05:30:46.440Z,31.03
2023-04-11T05:31:16.463Z,31.72
2023-04-11T05:31:46.394Z,32.22
2023-04-11T05:32:16.413Z,32.4
2023-04-11T05:32:46.426Z,32.9
2023-04-11T05:33:16.409Z,33.27
2023-04-11T05:33:46.393Z,33.33
2023-04-11T05:34:16.407Z,32.8
2023-04-11T05:34:46.391Z,32.63
2023-04-11T05:35:16.394Z,32.37
2023-04-11T05:35:46.430Z,32.19
2023-04-11T05:36:16.473Z,32.24
2023-04-11T05:36:46.407Z,32.92
2023-04-11T05:37:16.394Z,33.29
2023-04-11T05:37:46.417Z,33.72
2023-04-11T05:38:16.399Z,34.4
2023-04-11T05:38:46.393Z,34.97
2023-04-11T05:39:16.414Z,35.57
2023-04-11T05:39:46.401Z,35.89
2023-04-11T05:40:16.425Z,36.43
2023-04-11T05:40:46.396Z,36.75
2023-04-11T05:41:16.401Z,37.11
2023-04-11T05:41:46.402Z,37.32
2023-04-11T05:42:16.402Z,37.35
2023-04-11T05:42:46.399Z,37.17
2023-04-11T05:43:16.423Z,36.88
2023-04-11T05:43:46.396Z,36.2
2023-04-11T05:44:16.402Z,35.65
2023-04-11T05:44:46.417Z,35.38
2023-04-11T05:45:16.407Z,35.59
2023-04-11T05:45:46.489Z,35.88
2023-04-11T05:46:16.433Z,36.06
2023-04-11T05:46:46.407Z,35.83
2023-04-11T05:47:16.446Z,34.84
2023-04-11T05:47:46.443Z,34.26
2023-04-11T05:48:16.427Z,33.84
2023-04-11T05:48:46.403Z,33.72
2023-04-11T05:49:16.421Z,33.95
2023-04-11T05:49:46.400Z,34.06
2023-04-11T05:50:16.406Z,34.21
2023-04-11T05:50:46.408Z,34.45
2023-04-11T05:51:16.411Z,34.55
2023-04-11T05:51:46.413Z,34.61
2023-04-11T05:52:16.409Z,34.63
2023-04-11T05:52:46.417Z,34.76
2023-04-11T05:53:16.406Z,35.22
2023-04-11T05:53:46.408Z,35.58
2023-04-11T05:54:16.406Z,35.97
2023-04-11T05:54:46.406Z,36.29
2023-04-11T05:55:16.425Z,36.65
2023-04-11T05:55:46.397Z,36.73
2023-04-11T05:56:16.404Z,36.8
2023-04-11T05:56:46.413Z,37.11
2023-04-11T05:57:16.407Z,37.39
2023-04-11T05:57:46.411Z,37.76
2023-04-11T05:58:16.403Z,37.25
2023-04-11T05:58:46.398Z,36.34
2023-04-11T05:59:18.084Z,35.19
2023-04-11T05:59:47.451Z,34.44
2023-04-11T06:00:16.408Z,33.95
2023-04-11T06:00:46.407Z,32.85
2023-04-11T06:01:16.422Z,31.65
2023-04-11T06:01:46.420Z,30.82
2023-04-11T06:02:16.478Z,30.14
2023-04-11T06:02:46.626Z,30.18
2023-04-11T06:03:16.480Z,30.27
2023-04-11T06:03:46.654Z,30.93
2023-04-11T06:04:16.707Z,31.43
2023-04-11T06:04:46.436Z,31.36
2023-04-11T06:05:16.568Z,30.88
2023-04-11T06:05:46.419Z,30.55
2023-04-11T06:06:16.409Z,30.41
2023-04-11T06:06:46.409Z,30.17
2023-04-11T06:07:16.426Z,30.65
2023-04-11T06:07:46.414Z,31.42
2023-04-11T06:08:16.411Z,32.17
2023-04-11T06:08:46.411Z,32.65
2023-04-11T06:09:16.407Z,33.08
2023-04-11T06:09:46.414Z,33.61
2023-04-11T06:10:16.416Z,34.42
2023-04-11T06:10:46.407Z,33.81
2023-04-11T06:11:16.412Z,33.06
2023-04-11T06:11:46.403Z,32.38
2023-04-11T06:12:16.408Z,31.67
2023-04-11T06:12:46.406Z,31.64
2023-04-11T06:13:16.411Z,31.93
2023-04-11T06:13:46.411Z,31.94
2023-04-11T06:14:16.420Z,32.15
2023-04-11T06:14:46.417Z,32.06
2023-04-11T06:15:16.416Z,31.84
2023-04-11T06:15:46.435Z,31.52
2023-04-11T06:16:16.515Z,31.49
2023-04-11T06:16:46.426Z,31.52
2023-04-11T06:17:16.418Z,31.31
2023-04-11T06:17:46.435Z,31.2
2023-04-11T06:18:16.417Z,31.14
2023-04-11T06:18:46.414Z,30.87
2023-04-11T06:19:16.421Z,30.64
2023-04-11T06:19:46.426Z,30.6
2023-04-11T06:20:16.415Z,30.47
2023-04-11T06:20:46.422Z,31.01
2023-04-11T06:21:16.414Z,31.83
2023-04-11T06:21:46.407Z,32.5
2023-04-11T06:22:16.423Z,32.9
2023-04-11T06:22:46.411Z,33.25
2023-04-11T06:23:16.417Z,33.11
2023-04-11T06:23:46.418Z,33.64
2023-04-11T06:24:16.426Z,33.9
2023-04-11T06:24:46.408Z,34.47
2023-04-11T06:25:16.414Z,35.01
2023-04-11T06:25:46.407Z,35.35
2023-04-11T06:26:16.420Z,35.66
2023-04-11T06:26:46.416Z,36.12
2023-04-11T06:27:16.411Z,36.03
2023-04-11T06:27:46.420Z,36.04
2023-04-11T06:28:16.432Z,36.22
2023-04-11T06:28:46.410Z,36.38
2023-04-11T06:29:16.420Z,35.89
2023-04-11T06:29:46.410Z,35.05
2023-04-11T06:30:16.436Z,34.35
2023-04-11T06:30:46.421Z,34.46
2023-04-11T06:31:16.450Z,34.91
2023-04-11T06:31:46.518Z,35.11
2023-04-11T06:32:16.415Z,34.9
2023-04-11T06:32:46.551Z,35.24